createdAt,value
2017-11-25T00:02:02.842Z,2.87
2017-11-25T00:04:31.280Z,3.37
2017-11-25T00:06:59.722Z,3.07
2017-11-25T00:09:28.232Z,3.80
2017-11-25T00:11:56.672Z,3.43
2017-11-25T00:14:25.100Z,3.30
2017-11-25T00:16:53.583Z,2.97
2017-11-25T00:19:22.212Z,3.53
2017-11-25T00:21:51.422Z,3.63
2017-11-25T00:24:20.370Z,3.70
2017-11-25T00:26:48.892Z,3.50
2017-11-25T00:29:17.331Z,3.33
2017-11-25T00:31:45.760Z,3.70
2017-11-25T00:34:15.103Z,3.07
2017-11-25T00:36:43.536Z,3.10
2017-11-25T00:39:12.740Z,3.60
2017-11-25T00:41:41.936Z,3.20
2017-11-25T00:44:11.149Z,3.30
2017-11-25T00:46:39.572Z,3.33
2017-11-25T00:49:08.012Z,3.53
2017-11-25T00:51:36.443Z,3.20
2017-11-25T00:54:04.884Z,3.63
2017-11-25T00:56:33.324Z,3.43
2017-11-25T00:59:02.540Z,3.07
2017-11-25T01:01:31.799Z,2.50
2017-11-25T01:04:00.349Z,3.07
2017-11-25T01:06:28.803Z,4.00
2017-11-25T01:08:57.990Z,3.77
2017-11-25T01:11:26.695Z,3.77
2017-11-25T01:13:55.884Z,3.03
2017-11-25T01:16:25.128Z,2.33
2017-11-25T01:18:53.591Z,2.97
2017-11-25T01:21:22.071Z,3.40
2017-11-25T01:23:50.671Z,2.50
2017-11-25T01:26:19.157Z,2.33
2017-11-25T01:28:47.632Z,1.90
2017-11-25T01:31:16.100Z,2.67
2017-11-25T01:33:44.336Z,2.73
2017-11-25T01:36:12.445Z,2.53
2017-11-25T01:38:40.932Z,2.57
2017-11-25T01:41:09.243Z,2.53
2017-11-25T01:43:37.731Z,2.80
2017-11-25T01:46:06.202Z,2.33
2017-11-25T01:48:34.732Z,2.00
2017-11-25T01:51:03.802Z,2.40
2017-11-25T01:53:32.086Z,2.30
2017-11-25T01:55:59.774Z,2.30
2017-11-25T01:58:28.832Z,2.80
2017-11-25T02:00:57.036Z,2.27
2017-11-25T02:03:26.281Z,2.40
2017-11-25T02:05:54.468Z,2.43
2017-11-25T02:08:22.992Z,2.10
2017-11-25T02:10:51.475Z,2.30
2017-11-25T02:13:20.201Z,2.63
2017-11-25T02:15:48.667Z,2.63
2017-11-25T02:18:17.173Z,2.30
2017-11-25T02:20:45.404Z,2.50
2017-11-25T02:23:13.872Z,2.07
2017-11-25T02:25:42.009Z,2.20
2017-11-25T02:28:09.828Z,2.30
2017-11-25T02:30:37.650Z,3.03
2017-11-25T02:33:06.131Z,2.60
2017-11-25T02:35:34.664Z,3.60
2017-11-25T02:38:03.578Z,3.00
2017-11-25T02:40:32.108Z,3.87
2017-11-25T02:43:00.282Z,3.77
2017-11-25T02:45:28.433Z,3.80
2017-11-25T02:47:56.659Z,5.00
2017-11-25T02:50:25.144Z,5.33
2017-11-25T02:52:53.288Z,4.50
2017-11-25T02:55:21.796Z,5.70
2017-11-25T02:57:50.264Z,4.50
2017-11-25T03:00:18.823Z,4.73
2017-11-25T03:02:47.304Z,4.00
2017-11-25T03:05:15.449Z,3.90
2017-11-25T03:07:44.705Z,3.50
2017-11-25T03:10:13.168Z,2.93
2017-11-25T03:12:41.643Z,2.80
2017-11-25T03:15:09.772Z,3.23
2017-11-25T03:17:39.032Z,3.50
2017-11-25T03:20:07.539Z,3.70
2017-11-25T03:22:35.652Z,3.80
2017-11-25T03:25:04.728Z,3.50
2017-11-25T03:27:33.503Z,4.10
2017-11-25T03:30:02.854Z,3.33
2017-11-25T03:32:31.337Z,4.00
2017-11-25T03:34:59.815Z,4.07
2017-11-25T03:37:28.371Z,4.03
2017-11-25T03:39:57.600Z,4.57
2017-11-25T03:42:26.134Z,4.63
2017-11-25T03:44:54.431Z,4.53
2017-11-25T03:47:23.651Z,4.80
2017-11-25T03:49:52.135Z,4.83
2017-11-25T03:52:20.277Z,5.30
2017-11-25T03:54:48.120Z,5.87
2017-11-25T03:57:15.944Z,5.70
2017-11-25T03:59:44.532Z,6.00
2017-11-25T04:02:12.937Z,5.70
2017-11-25T04:04:41.400Z,5.63
2017-11-25T04:07:09.240Z,5.43
2017-11-25T04:09:38.155Z,6.63
2017-11-25T04:12:06.675Z,7.57
2017-11-25T04:14:35.147Z,5.80
2017-11-25T04:17:03.631Z,5.50
2017-11-25T04:19:32.091Z,4.80
2017-11-25T04:22:00.897Z,4.20
2017-11-25T04:24:29.029Z,4.67
2017-11-25T04:26:58.260Z,5.03
2017-11-25T04:29:26.800Z,4.10
2017-11-25T04:31:56.044Z,3.27
2017-11-25T04:34:24.532Z,1.90
2017-11-25T04:36:53.003Z,1.30
2017-11-25T04:39:21.469Z,1.20
2017-11-25T04:41:50.708Z,1.40
2017-11-25T04:44:19.206Z,0.93
2017-11-25T04:46:48.448Z,0.90
2017-11-25T04:49:17.699Z,0.93
2017-11-25T04:51:46.148Z,1.00
2017-11-25T04:54:14.635Z,0.80
2017-11-25T04:56:43.114Z,0.90
2017-11-25T04:59:11.576Z,1.10
2017-11-25T05:01:40.497Z,1.00
2017-11-25T05:04:09.145Z,1.00
2017-11-25T05:06:38.392Z,1.40
2017-11-25T05:09:06.856Z,1.00
2017-11-25T05:11:35.367Z,1.10
2017-11-25T05:14:03.973Z,1.00
2017-11-25T05:16:32.443Z,1.37
2017-11-25T05:19:00.569Z,0.93
2017-11-25T05:21:29.786Z,1.10
2017-11-25T05:23:57.945Z,1.20
2017-11-25T05:26:26.232Z,1.30
2017-11-25T05:28:54.532Z,5.07
2017-11-25T05:31:22.998Z,1.60
2017-11-25T05:33:51.484Z,2.23
2017-11-25T05:36:19.960Z,1.40
2017-11-25T05:38:48.262Z,1.30
2017-11-25T05:41:16.636Z,1.10
2017-11-25T05:43:44.947Z,0.80
2017-11-25T05:46:13.410Z,0.80
2017-11-25T05:48:41.881Z,1.00
2017-11-25T05:51:10.352Z,1.07
2017-11-25T05:53:39.675Z,1.10
2017-11-25T05:56:08.211Z,1.07
2017-11-25T05:58:37.463Z,0.80
2017-11-25T06:01:05.975Z,0.90
2017-11-25T06:03:34.446Z,0.87
2017-11-25T06:06:03.012Z,0.70
2017-11-25T06:08:31.474Z,1.10
2017-11-25T06:10:59.962Z,0.70
2017-11-25T06:13:28.444Z,0.80
2017-11-25T06:15:57.000Z,0.83
2017-11-25T06:18:25.297Z,0.60
2017-11-25T06:20:53.763Z,0.70
2017-11-25T06:23:22.239Z,0.70
2017-11-25T06:25:50.664Z,0.83
2017-11-25T06:28:19.020Z,0.70
2017-11-25T06:30:47.556Z,0.70
2017-11-25T06:33:16.648Z,0.70
2017-11-25T06:35:45.132Z,0.70
2017-11-25T06:38:13.676Z,1.07
2017-11-25T06:40:42.160Z,0.90
2017-11-25T06:43:10.652Z,0.87
2017-11-25T06:45:39.131Z,0.87
2017-11-25T06:48:07.604Z,0.97
2017-11-25T06:50:35.892Z,1.23
2017-11-25T06:53:04.373Z,0.67
2017-11-25T06:55:32.899Z,0.73
2017-11-25T06:58:01.356Z,0.70
2017-11-25T07:00:29.824Z,0.80
2017-11-25T07:02:58.403Z,0.70
2017-11-25T07:05:26.862Z,0.70
2017-11-25T07:07:55.344Z,0.90
2017-11-25T07:10:23.811Z,0.70
2017-11-25T07:12:53.155Z,0.80
2017-11-25T07:15:21.703Z,0.80
2017-11-25T07:17:50.953Z,0.73
2017-11-25T07:20:19.408Z,1.30
2017-11-25T07:22:47.892Z,0.80
2017-11-25T07:25:16.381Z,0.93
2017-11-25T07:27:44.856Z,1.83
2017-11-25T07:30:13.348Z,0.80
2017-11-25T07:32:41.824Z,0.87
2017-11-25T07:35:10.308Z,1.07
2017-11-25T07:37:38.822Z,0.63
2017-11-25T07:40:07.313Z,1.00
2017-11-25T07:42:35.776Z,1.10
2017-11-25T07:45:04.263Z,0.83
2017-11-25T07:47:32.724Z,1.00
2017-11-25T07:50:01.207Z,0.67
2017-11-25T07:52:29.688Z,0.80
2017-11-25T07:54:58.151Z,0.70
2017-11-25T07:57:26.628Z,0.90
2017-11-25T07:59:55.112Z,0.70
2017-11-25T08:02:24.372Z,0.70
2017-11-25T08:04:52.840Z,0.63
2017-11-25T08:07:21.331Z,0.90
2017-11-25T08:09:50.725Z,0.70
2017-11-25T08:12:19.105Z,0.63
2017-11-25T08:14:47.525Z,0.60
2017-11-25T08:17:15.786Z,0.77
2017-11-25T08:19:44.042Z,0.70
2017-11-25T08:22:12.661Z,0.80
2017-11-25T08:24:41.172Z,0.70
2017-11-25T08:27:09.796Z,0.60
2017-11-25T08:29:38.243Z,0.80
2017-11-25T08:32:06.946Z,0.60
2017-11-25T08:34:35.530Z,0.70
2017-11-25T08:37:03.972Z,1.00
2017-11-25T08:39:33.168Z,0.70
2017-11-25T08:42:01.598Z,0.70
2017-11-25T08:44:30.048Z,1.07
2017-11-25T08:46:59.252Z,0.50
2017-11-25T08:49:28.451Z,0.70
2017-11-25T08:51:57.641Z,0.70
2017-11-25T08:54:26.947Z,0.67
2017-11-25T08:56:55.376Z,0.60
2017-11-25T08:59:23.620Z,0.60
2017-11-25T09:01:52.052Z,0.70
2017-11-25T09:04:20.512Z,0.60
2017-11-25T09:06:48.936Z,0.70
2017-11-25T09:09:18.135Z,0.70
2017-11-25T09:11:47.370Z,0.60
2017-11-25T09:14:15.812Z,0.70
2017-11-25T09:16:45.046Z,0.80
2017-11-25T09:19:13.556Z,0.60
2017-11-25T09:21:41.660Z,0.70
2017-11-25T09:24:10.119Z,0.47
2017-11-25T09:26:38.553Z,0.60
2017-11-25T09:29:07.008Z,0.60
2017-11-25T09:31:34.780Z,0.60
2017-11-25T09:34:03.224Z,0.90
2017-11-25T09:36:31.657Z,0.83
2017-11-25T09:39:00.862Z,0.50
2017-11-25T09:41:30.073Z,0.60
2017-11-25T09:43:58.520Z,0.90
2017-11-25T09:46:26.956Z,0.60
2017-11-25T09:48:55.421Z,0.50
2017-11-25T09:51:23.901Z,0.47
2017-11-25T09:53:52.456Z,0.80
2017-11-25T09:56:21.679Z,0.50
2017-11-25T09:58:50.109Z,0.53
2017-11-25T10:01:18.556Z,0.60
2017-11-25T10:03:46.462Z,0.50
2017-11-25T10:06:14.871Z,0.70
2017-11-25T10:08:44.069Z,0.40
2017-11-25T10:11:13.516Z,0.50
2017-11-25T10:13:41.940Z,0.50
2017-11-25T10:16:10.405Z,0.50
2017-11-25T10:18:38.841Z,0.40
2017-11-25T10:21:07.345Z,0.50
2017-11-25T10:23:35.885Z,0.57
2017-11-25T10:26:04.488Z,0.60
2017-11-25T10:28:33.823Z,0.67
2017-11-25T10:31:02.253Z,1.37
2017-11-25T10:33:31.492Z,0.50
2017-11-25T10:35:59.921Z,0.40
2017-11-25T10:38:28.349Z,0.50
2017-11-25T10:40:56.457Z,0.50
2017-11-25T10:43:24.902Z,0.50
2017-11-25T10:45:53.152Z,0.53
2017-11-25T10:48:22.391Z,0.70
2017-11-25T10:50:50.849Z,0.67
2017-11-25T10:53:19.312Z,2.40
2017-11-25T10:55:47.665Z,5.13
2017-11-25T10:58:15.910Z,4.90
2017-11-25T11:00:44.182Z,2.50
2017-11-25T11:03:12.470Z,0.80
2017-11-25T11:05:40.763Z,0.60
2017-11-25T11:08:08.694Z,0.60
2017-11-25T11:10:36.929Z,0.73
2017-11-25T11:13:05.209Z,0.57
2017-11-25T11:15:33.465Z,0.60
2017-11-25T11:18:01.945Z,0.90
2017-11-25T11:20:30.201Z,2.10
2017-11-25T11:22:58.639Z,1.50
2017-11-25T11:25:27.073Z,1.20
2017-11-25T11:27:55.549Z,1.40
2017-11-25T11:30:23.989Z,1.30
2017-11-25T11:32:53.355Z,0.83
2017-11-25T11:35:21.808Z,0.80
2017-11-25T11:37:50.236Z,0.73
2017-11-25T11:40:18.694Z,1.20
2017-11-25T11:42:47.169Z,0.60
2017-11-25T11:45:15.608Z,1.50
2017-11-25T11:47:44.264Z,0.90
2017-11-25T11:50:12.740Z,0.80
2017-11-25T11:52:41.236Z,0.70
2017-11-25T11:55:10.256Z,0.80
2017-11-25T11:57:39.472Z,0.87
2017-11-25T12:00:07.734Z,0.70
2017-11-25T12:02:36.778Z,0.90
2017-11-25T12:05:05.328Z,0.83
2017-11-25T12:07:33.755Z,0.70
2017-11-25T12:10:02.206Z,0.80
2017-11-25T12:12:30.623Z,0.90
2017-11-25T12:14:59.060Z,0.70
2017-11-25T12:17:27.761Z,0.80
2017-11-25T12:19:56.193Z,0.90
2017-11-25T12:22:25.414Z,0.77
2017-11-25T12:24:54.646Z,0.70
2017-11-25T12:27:23.186Z,0.83
2017-11-25T12:29:52.394Z,1.00
2017-11-25T12:32:21.611Z,0.80
2017-11-25T12:34:50.069Z,0.80
2017-11-25T12:37:19.288Z,0.60
2017-11-25T12:39:47.733Z,0.70
2017-11-25T12:42:16.185Z,0.70
2017-11-25T12:44:44.631Z,1.57
2017-11-25T12:47:13.084Z,0.60
2017-11-25T12:49:41.331Z,0.70
2017-11-25T12:52:09.957Z,0.50
2017-11-25T12:54:38.985Z,0.70
2017-11-25T12:57:07.451Z,0.60
2017-11-25T12:59:36.647Z,0.70
2017-11-25T13:02:05.132Z,0.60
2017-11-25T13:04:34.324Z,0.60
2017-11-25T13:07:03.542Z,0.70
2017-11-25T13:09:31.977Z,0.70
2017-11-25T13:12:00.435Z,0.70
2017-11-25T13:14:28.893Z,0.80
2017-11-25T13:16:57.523Z,0.90
2017-11-25T13:19:25.982Z,0.83
2017-11-25T13:21:54.413Z,1.00
2017-11-25T13:24:23.635Z,0.80
2017-11-25T13:26:52.137Z,0.80
2017-11-25T13:29:20.660Z,0.83
2017-11-25T13:31:49.104Z,0.87
2017-11-25T13:34:17.534Z,0.80
2017-11-25T13:36:46.757Z,0.70
2017-11-25T13:39:15.233Z,1.07
2017-11-25T13:41:44.440Z,1.20
2017-11-25T13:44:12.876Z,0.70
2017-11-25T13:46:41.136Z,0.80
2017-11-25T13:49:09.704Z,1.20
2017-11-25T13:51:38.148Z,1.00
2017-11-25T13:54:07.148Z,0.87
2017-11-25T13:56:36.186Z,0.77
2017-11-25T13:59:04.655Z,0.60
2017-11-25T14:01:34.059Z,0.50
2017-11-25T14:04:02.306Z,0.53
2017-11-25T14:06:30.685Z,0.60
2017-11-25T14:08:59.696Z,0.60
2017-11-25T14:11:27.804Z,0.50
2017-11-25T14:13:56.277Z,0.70
2017-11-25T14:16:24.705Z,0.60
2017-11-25T14:18:52.813Z,0.60
2017-11-25T14:21:21.233Z,0.63
2017-11-25T14:23:49.744Z,0.60
2017-11-25T14:26:18.944Z,0.63
2017-11-25T14:28:48.198Z,0.67
2017-11-25T14:31:16.302Z,0.70
2017-11-25T14:33:44.583Z,1.07
2017-11-25T14:36:14.511Z,0.80
2017-11-25T14:38:43.401Z,0.70
2017-11-25T14:41:11.837Z,1.00
2017-11-25T14:43:40.304Z,0.80
2017-11-25T14:46:08.766Z,1.00
2017-11-25T14:48:38.013Z,1.00
2017-11-25T14:51:06.481Z,1.00
2017-11-25T14:53:34.926Z,0.83
2017-11-25T14:56:04.146Z,0.97
2017-11-25T14:58:33.211Z,0.77
2017-11-25T15:01:01.804Z,1.00
2017-11-25T15:03:30.374Z,0.70
2017-11-25T15:05:58.828Z,0.80
2017-11-25T15:08:27.261Z,1.10
2017-11-25T15:10:55.700Z,1.00
2017-11-25T15:13:24.152Z,1.13
2017-11-25T15:15:52.602Z,0.97
2017-11-25T15:18:21.485Z,1.20
2017-11-25T15:20:50.713Z,1.20
2017-11-25T15:23:19.153Z,0.97
2017-11-25T15:25:47.662Z,0.90
2017-11-25T15:28:16.708Z,1.00
2017-11-25T15:30:44.797Z,1.07
2017-11-25T15:33:13.059Z,1.00
2017-11-25T15:35:41.309Z,0.90
2017-11-25T15:38:09.438Z,1.40
2017-11-25T15:40:38.020Z,1.97
2017-11-25T15:43:05.954Z,1.03
2017-11-25T15:45:34.552Z,0.87
2017-11-25T15:48:02.961Z,0.83
2017-11-25T15:50:31.104Z,0.80
2017-11-25T15:53:00.042Z,1.20
2017-11-25T15:55:28.925Z,1.43
2017-11-25T15:57:57.463Z,1.10
2017-11-25T16:00:25.387Z,1.00
2017-11-25T16:02:54.828Z,1.30
2017-11-25T16:05:24.062Z,1.20
2017-11-25T16:07:52.513Z,1.00
2017-11-25T16:10:20.975Z,1.40
2017-11-25T16:12:49.812Z,1.70
2017-11-25T16:15:18.296Z,1.30
2017-11-25T16:17:46.760Z,1.80
2017-11-25T16:20:15.172Z,1.47
2017-11-25T16:22:44.116Z,1.57
2017-11-25T16:25:12.940Z,1.20
2017-11-25T16:27:41.769Z,0.90
2017-11-25T16:30:10.629Z,1.20
2017-11-25T16:32:39.061Z,1.10
2017-11-25T16:35:07.523Z,1.10
2017-11-25T16:37:36.493Z,1.00
2017-11-25T16:40:04.928Z,1.20
2017-11-25T16:42:33.591Z,1.17
2017-11-25T16:45:02.817Z,1.10
2017-11-25T16:47:30.924Z,1.03
2017-11-25T16:49:59.786Z,0.93
2017-11-25T16:52:29.254Z,1.10
2017-11-25T16:54:58.137Z,1.00
2017-11-25T16:57:26.976Z,0.70
2017-11-25T16:59:55.856Z,0.80
2017-11-25T17:02:25.248Z,0.93
2017-11-25T17:04:54.109Z,0.80
2017-11-25T17:07:22.949Z,0.80
2017-11-25T17:09:51.392Z,1.20
2017-11-25T17:12:20.632Z,0.90
2017-11-25T17:14:49.073Z,1.00
2017-11-25T17:17:18.313Z,1.00
2017-11-25T17:19:46.773Z,1.07
2017-11-25T17:22:15.225Z,0.80
2017-11-25T17:24:43.663Z,1.23
2017-11-25T17:27:12.183Z,1.00
2017-11-25T17:29:41.193Z,1.20
2017-11-25T17:32:10.042Z,1.10
2017-11-25T17:34:38.883Z,1.30
2017-11-25T17:37:08.125Z,1.08
2017-11-25T17:39:36.820Z,1.48
2017-11-25T17:42:05.952Z,1.10
2017-11-25T17:44:35.044Z,1.15
2017-11-25T17:47:04.152Z,2.22
2017-11-25T17:49:32.887Z,2.50
2017-11-25T17:52:02.000Z,2.67
2017-11-25T17:54:30.728Z,2.85
2017-11-25T17:56:59.458Z,4.90
2017-11-25T17:59:28.946Z,5.93
2017-11-25T18:01:57.657Z,4.80
2017-11-25T18:04:27.145Z,6.50
2017-11-25T18:06:55.842Z,5.70
2017-11-25T18:09:24.944Z,6.90
2017-11-25T18:11:54.397Z,6.70
2017-11-25T18:14:23.121Z,7.90
2017-11-25T18:16:51.831Z,8.80
2017-11-25T18:19:20.924Z,8.60
2017-11-25T18:21:50.108Z,9.88
2017-11-25T18:24:19.631Z,9.60
2017-11-25T18:26:49.119Z,9.80
2017-11-25T18:29:18.619Z,11.82
2017-11-25T18:31:47.357Z,13.07
2017-11-25T18:34:15.885Z,12.10
2017-11-25T18:36:44.993Z,14.13
2017-11-25T18:39:14.488Z,13.07
2017-11-25T18:41:43.215Z,14.60
2017-11-25T18:44:11.949Z,15.10
2017-11-25T18:46:40.732Z,14.70
2017-11-25T18:49:09.472Z,15.68
2017-11-25T18:51:38.993Z,14.85
2017-11-25T18:54:07.773Z,15.98
2017-11-25T18:56:36.537Z,16.45
2017-11-25T18:59:05.264Z,18.17
2017-11-25T19:01:34.013Z,17.77
2017-11-25T19:04:02.948Z,17.95
2017-11-25T19:06:31.667Z,18.62
2017-11-25T19:09:00.262Z,18.70
2017-11-25T19:11:29.068Z,18.98
2017-11-25T19:13:57.841Z,18.10
2017-11-25T19:16:26.554Z,18.95
2017-11-25T19:18:56.044Z,18.23
2017-11-25T19:21:24.764Z,15.88
2017-11-25T19:23:53.488Z,15.82
2017-11-25T19:26:22.061Z,17.73
2017-11-25T19:28:50.595Z,18.62
2017-11-25T19:31:19.521Z,18.23
2017-11-25T19:33:48.244Z,19.02
2017-11-25T19:36:16.993Z,16.20
2017-11-25T19:38:46.472Z,30.27
2017-11-25T19:41:15.790Z,16.33
2017-11-25T19:43:45.345Z,17.52
2017-11-25T19:46:14.821Z,18.33
2017-11-25T19:48:43.549Z,16.80
2017-11-25T19:51:13.726Z,18.12
2017-11-25T19:53:42.485Z,16.90
2017-11-25T19:56:11.964Z,18.50
2017-11-25T19:58:40.712Z,17.05
2017-11-25T20:01:09.423Z,17.83
2017-11-25T20:03:38.189Z,16.55
2017-11-25T20:06:06.931Z,17.00
2017-11-25T20:08:35.681Z,14.75
2017-11-25T20:11:04.489Z,14.43
2017-11-25T20:13:33.232Z,13.50
2017-11-25T20:16:02.732Z,16.77
2017-11-25T20:18:32.229Z,16.95
2017-11-25T20:21:00.983Z,14.60
2017-11-25T20:23:29.840Z,15.68
2017-11-25T20:25:58.740Z,14.55
2017-11-25T20:28:27.460Z,13.43
2017-11-25T20:30:56.193Z,13.55
2017-11-25T20:33:25.691Z,13.70
2017-11-25T20:35:55.205Z,15.82
2017-11-25T20:38:24.939Z,13.82
2017-11-25T20:40:53.662Z,14.00
2017-11-25T20:43:22.454Z,15.18
2017-11-25T20:45:51.396Z,14.45
2017-11-25T20:48:20.041Z,12.45
2017-11-25T20:50:48.759Z,12.25
2017-11-25T20:53:18.466Z,14.00
2017-11-25T20:55:47.948Z,15.15
2017-11-25T20:58:16.682Z,10.48
2017-11-25T21:00:45.409Z,11.27
2017-11-25T21:03:14.163Z,12.63
2017-11-25T21:05:42.928Z,11.65
2017-11-25T21:08:12.524Z,11.68
2017-11-25T21:10:41.278Z,13.80
2017-11-25T21:13:09.998Z,13.05
2017-11-25T21:15:38.775Z,13.18
2017-11-25T21:18:07.516Z,14.32
2017-11-25T21:20:36.315Z,13.30
2017-11-25T21:23:05.049Z,14.27
2017-11-25T21:25:33.815Z,14.00
2017-11-25T21:28:02.613Z,13.95
2017-11-25T21:30:32.284Z,13.40
2017-11-25T21:33:01.066Z,11.32
2017-11-25T21:35:30.492Z,12.80
2017-11-25T21:37:59.054Z,13.27
2017-11-25T21:40:27.866Z,13.45
2017-11-25T21:42:57.914Z,27.87
2017-11-25T21:45:27.962Z,16.07
2017-11-25T21:47:56.253Z,13.43
2017-11-25T21:50:25.772Z,13.07
2017-11-25T21:52:54.587Z,13.95
2017-11-25T21:55:23.333Z,13.20
2017-11-25T21:57:52.596Z,12.17
2017-11-25T22:00:21.346Z,11.80
2017-11-25T22:02:50.117Z,12.27
2017-11-25T22:05:19.631Z,11.07
2017-11-25T22:07:48.409Z,10.30
2017-11-25T22:10:16.910Z,10.70
2017-11-25T22:12:45.796Z,10.35
2017-11-25T22:15:15.291Z,9.45
2017-11-25T22:17:45.027Z,8.85
2017-11-25T22:20:13.761Z,8.80
2017-11-25T22:22:42.492Z,9.18
2017-11-25T22:25:11.240Z,8.15
2017-11-25T22:27:39.992Z,8.52
2017-11-25T22:30:08.754Z,7.93
2017-11-25T22:32:38.394Z,7.85
2017-11-25T22:35:07.149Z,8.68
2017-11-25T22:37:36.789Z,9.20
2017-11-25T22:40:06.272Z,9.10
2017-11-25T22:42:35.823Z,8.95
2017-11-25T22:45:04.457Z,8.40
2017-11-25T22:47:33.728Z,9.38
2017-11-25T22:50:02.615Z,7.95
2017-11-25T22:52:31.331Z,7.55
2017-11-25T22:55:00.330Z,6.82
2017-11-25T22:57:29.073Z,6.75
2017-11-25T22:59:57.810Z,6.37
2017-11-25T23:02:27.273Z,6.68
2017-11-25T23:04:55.989Z,6.53
2017-11-25T23:07:24.691Z,5.90
2017-11-25T23:09:54.263Z,5.55
2017-11-25T23:12:22.984Z,5.20
2017-11-25T23:14:52.440Z,5.50
2017-11-25T23:17:21.179Z,5.90
2017-11-25T23:19:49.973Z,7.18
2017-11-25T23:22:19.477Z,7.07
2017-11-25T23:24:49.109Z,7.10
2017-11-25T23:27:17.812Z,8.18
2017-11-25T23:29:46.531Z,6.35
2017-11-25T23:32:15.239Z,7.60
2017-11-25T23:34:43.953Z,7.40
2017-11-25T23:37:13.420Z,7.10
2017-11-25T23:39:42.139Z,8.20
2017-11-25T23:42:11.637Z,6.07
2017-11-25T23:44:41.129Z,6.05
2017-11-25T23:47:09.837Z,5.25
2017-11-25T23:49:39.438Z,6.22
2017-11-25T23:52:08.931Z,5.97
2017-11-25T23:54:40.605Z,5.75
2017-11-25T23:57:09.903Z,5.30
2017-11-25T23:59:39.393Z,4.53
